CheckWX is a tool to help pilots better visualize weather data.  It is not intended as a substitute for an official pre-flight weather briefing.

06:52:51 UTC

KBRD TAF
Brainerd Lakes Regional Airport
Brainerd, Minnesota, USA
KBRD 260539Z 2606/2706 35008KT P6SM SCT250 FM260800 34006KT P6SM SCT070 FM261700 VRB04KT P6SM BKN150 FM262000 33005KT P6SM BKN080 FM262300 VRB03KT P6SM BKN040

Feb-26@
06:00 UTC

Feb-26 @ 06:00 UTC

Feb-26@
08:00 UTC

Feb-26 @ 08:00 UTC

KBRD 260539Z 2606/2706 35008KT P6SM SCT250
Wind
  • 350° at 8 KTS
Cloud Levels
  • Scattered at 25,000' AGL

Feb-26@
08:00 UTC

Feb-26 @ 08:00 UTC

Feb-26@
17:00 UTC

Feb-26 @ 17:00 UTC

FM260800 34006KT P6SM SCT070

From

From Standard forecast or significant change

Wind
  • 340° at 6 KTS
Cloud Levels
  • Scattered at 7,000' AGL

Feb-26@
17:00 UTC

Feb-26 @ 17:00 UTC

Feb-26@
20:00 UTC

Feb-26 @ 20:00 UTC

FM261700 VRB04KT P6SM BKN150

From

From Standard forecast or significant change

Wind
  • Variable at 4 KTS
Cloud Levels
  • Broken at 15,000' AGL

Feb-26@
20:00 UTC

Feb-26 @ 20:00 UTC

Feb-26@
23:00 UTC

Feb-26 @ 23:00 UTC

FM262000 33005KT P6SM BKN080

From

From Standard forecast or significant change

Wind
  • 330° at 5 KTS
Cloud Levels
  • Broken at 8,000' AGL

Feb-26@
23:00 UTC

Feb-26 @ 23:00 UTC

Feb-27@
06:00 UTC

Feb-27 @ 06:00 UTC

FM262300 VRB03KT P6SM BKN040

From

From Standard forecast or significant change

Wind
  • Variable at 3 KTS
Cloud Levels
  • Broken at 4,000' AGL